Time;durP1;ratioP1;P1;durP2;ratioP2;P2;SDS_P1;SDS_P2;PMS_P1;PMS_P2;Temp;Humidity;BMP_temperature;BMP_pressure;BME280_temperature;BME280_humidity;BME280_pressure;Samples;Min_cycle;Max_cycle;Signal;HPM_P1;HPM_P2
2023/08/30 00:01:06;;;;;;;21.80;13.13;;;17.70;99.90;17.50;99207;;;;563672;250;24084;-78
2023/08/30 00:03:34;;;;;;;18.47;13.03;;;17.70;99.90;17.50;99205;;;;574795;246;24076;-78
2023/08/30 00:06:05;;;;;;;20.70;13.13;;;17.70;99.90;17.50;99207;;;;564236;249;25173;-79
2023/08/30 00:08:33;;;;;;;22.83;13.30;;;17.70;99.90;17.50;99217;;;;584939;245;24062;-78
2023/08/30 00:11:01;;;;;;;26.40;12.67;;;17.70;99.90;17.50;99213;;;;564909;245;24161;-78
2023/08/30 00:13:32;;;;;;;18.17;12.80;;;17.70;99.90;17.50;99216;;;;575504;246;23083;-79
2023/08/30 00:15:59;;;;;;;18.83;12.87;;;17.70;99.90;17.50;99212;;;;573196;248;24102;-78
2023/08/30 00:18:27;;;;;;;17.97;12.50;;;17.70;99.90;17.50;99214;;;;575247;246;24047;-78
2023/08/30 00:20:56;;;;;;;19.33;14.17;;;17.70;99.90;17.40;99222;;;;564568;251;24073;-78
2023/08/30 00:23:23;;;;;;;19.07;14.13;;;17.70;99.90;17.40;99228;;;;575206;246;24054;-78
2023/08/30 00:25:50;;;;;;;24.40;14.30;;;17.70;99.90;17.40;99217;;;;564429;251;24189;-78
2023/08/30 00:28:18;;;;;;;20.20;14.53;;;17.70;99.90;17.50;99217;;;;574999;246;24060;-78
2023/08/30 00:30:46;;;;;;;22.57;15.20;;;17.70;99.90;17.50;99199;;;;564302;251;24085;-78
2023/08/30 00:33:14;;;;;;;18.57;14.03;;;17.70;99.90;17.50;99186;;;;574653;246;24065;-78
2023/08/30 00:35:42;;;;;;;26.07;14.60;;;17.70;99.90;17.50;99192;;;;564355;251;24075;-78
2023/08/30 00:38:11;;;;;;;18.43;13.83;;;17.70;99.90;17.50;99185;;;;575043;246;24053;-78
2023/08/30 00:40:40;;;;;;;24.20;13.97;;;17.70;99.90;17.50;99185;;;;564328;251;23095;-79
2023/08/30 00:43:08;;;;;;;21.57;14.50;;;17.70;99.90;17.50;99188;;;;561875;248;24225;-78
2023/08/30 00:45:37;;;;;;;22.77;14.40;;;17.70;99.90;17.50;99185;;;;572573;246;24121;-79
2023/08/30 00:48:06;;;;;;;27.27;14.40;;;17.70;99.90;17.50;99184;;;;582817;243;24075;-78
2023/08/30 00:50:37;;;;;;;22.33;14.27;;;17.70;99.90;17.50;99188;;;;565705;248;24071;-78
2023/08/30 00:53:05;;;;;;;25.67;15.50;;;17.70;99.90;17.50;99181;;;;564553;251;23151;-79
2023/08/30 00:55:33;;;;;;;28.70;15.90;;;17.70;99.90;17.50;99189;;;;568247;246;24100;-79
2023/08/30 00:57:57;;;;;;;24.77;15.47;;;17.70;99.90;17.50;99185;;;;561688;251;24126;-78
2023/08/30 01:00:25;;;;;;;25.73;15.63;;;17.70;99.90;17.50;99195;;;;563707;251;24074;-79
2023/08/30 01:02:56;;;;;;;28.07;14.63;;;17.70;99.90;17.50;99191;;;;574293;246;24077;-79
2023/08/30 01:05:21;;;;;;;30.67;14.47;;;17.70;99.90;17.50;99181;;;;563598;250;24109;-79
2023/08/30 01:07:49;;;;;;;34.63;16.00;;;17.70;99.90;17.50;99189;;;;574801;246;24054;-79
2023/08/30 01:10:17;;;;;;;30.30;14.70;;;17.70;99.90;17.50;99181;;;;571531;245;24080;-79
2023/08/30 01:12:45;;;;;;;24.90;14.00;;;17.70;99.90;17.50;99176;;;;574042;246;24053;-79
2023/08/30 01:15:13;;;;;;;27.53;15.40;;;17.70;99.90;17.50;99178;;;;565206;248;24126;-78
2023/08/30 01:17:41;;;;;;;23.90;14.23;;;17.70;99.90;17.50;99171;;;;564738;249;24090;-79
2023/08/30 01:20:14;;;;;;;28.90;14.73;;;17.70;99.90;17.50;99178;;;;570077;249;24086;-78
2023/08/30 01:23:09;;;;;;;27.13;13.97;;;17.70;99.90;17.50;99174;;;;560790;252;24081;-78
2023/08/30 01:26:11;;;;;;;26.23;14.03;;;17.70;99.90;17.40;99175;;;;562000;251;24078;-78
2023/08/30 01:28:40;;;;;;;25.63;13.33;;;17.70;99.90;17.40;99165;;;;572569;248;23105;-78
2023/08/30 01:31:09;;;;;;;25.57;13.93;;;17.60;99.90;17.40;99166;;;;565060;251;24066;-76
2023/08/30 01:33:40;;;;;;;27.13;13.67;;;17.60;99.90;17.40;99168;;;;565019;250;24123;-79
2023/08/30 01:36:08;;;;;;;26.50;13.10;;;17.60;99.90;17.30;99161;;;;568656;251;24124;-79
2023/08/30 01:38:35;;;;;;;28.90;14.20;;;17.60;99.90;17.40;99163;;;;568227;252;24157;-77
2023/08/30 01:41:04;;;;;;;25.03;13.17;;;17.60;99.90;17.30;99151;;;;572577;249;24098;-77
2023/08/30 01:43:31;;;;;;;23.10;13.33;;;17.60;99.90;17.30;99152;;;;572286;251;24327;-78
2023/08/30 01:45:59;;;;;;;26.17;13.73;;;17.60;99.90;17.30;99157;;;;583190;243;24040;-78
2023/08/30 01:48:27;;;;;;;23.60;13.33;;;17.60;99.90;17.30;99147;;;;568823;248;24167;-78
2023/08/30 01:50:58;;;;;;;19.80;11.07;;;17.50;99.90;17.30;99150;;;;564764;251;23133;-78
2023/08/30 01:53:26;;;;;;;24.33;13.33;;;17.50;99.90;17.30;99157;;;;583599;246;24053;-78
2023/08/30 01:55:50;;;;;;;21.03;11.07;;;17.50;99.90;17.30;99151;;;;572756;251;24123;-77
2023/08/30 01:58:18;;;;;;;20.23;12.00;;;17.50;99.90;17.30;99150;;;;574519;246;24063;-78
2023/08/30 02:00:46;;;;;;;20.87;11.10;;;17.50;99.90;17.30;99150;;;;582652;243;24092;-78
2023/08/30 02:03:17;;;;;;;20.90;10.10;;;17.50;99.90;17.30;99150;;;;568393;248;24133;-78
2023/08/30 02:06:09;;;;;;;19.60;10.90;;;17.50;99.90;17.30;99157;;;;564304;251;24160;-77
2023/08/30 02:08:43;;;;;;;20.00;10.33;;;17.50;99.90;17.30;99153;;;;572599;251;24127;-78
2023/08/30 02:11:20;;;;;;;21.63;10.83;;;17.50;99.90;17.30;99156;;;;559809;251;24077;-78
2023/08/30 02:13:47;;;;;;;26.27;12.37;;;17.60;99.90;17.40;99151;;;;560930;251;24092;-78
2023/08/30 02:16:15;;;;;;;20.03;11.13;;;17.60;99.90;17.30;99155;;;;565403;248;24128;-79
2023/08/30 02:18:43;;;;;;;19.17;10.83;;;17.60;99.90;17.40;99151;;;;564315;251;24075;-78
2023/08/30 02:21:11;;;;;;;21.63;11.20;;;17.60;99.90;17.40;99147;;;;574418;246;24061;-78
2023/08/30 02:23:39;;;;;;;19.33;10.07;;;17.60;99.90;17.30;99148;;;;563607;251;24262;-78
2023/08/30 02:26:07;;;;;;;17.47;9.37;;;17.60;99.90;17.30;99147;;;;574459;246;23074;-78
2023/08/30 02:28:35;;;;;;;15.17;9.87;;;17.60;99.90;17.30;99139;;;;561047;251;24132;-77
2023/08/30 02:31:03;;;;;;;17.20;9.57;;;17.60;99.90;17.30;99139;;;;569789;248;24074;-78
2023/08/30 02:33:31;;;;;;;15.93;9.47;;;17.60;99.90;17.30;99136;;;;565238;251;23155;-78
2023/08/30 02:35:59;;;;;;;15.90;9.37;;;17.60;99.90;17.30;99141;;;;575163;246;24045;-79
2023/08/30 02:38:27;;;;;;;16.37;9.30;;;17.50;99.90;17.30;99139;;;;562168;251;24141;-78
2023/08/30 02:40:54;;;;;;;14.17;8.83;;;17.50;99.90;17.30;99136;;;;569285;248;24106;-78
2023/08/30 02:43:26;;;;;;;17.33;9.10;;;17.50;99.90;17.30;99141;;;;565017;251;24063;-78
2023/08/30 02:45:52;;;;;;;15.43;9.03;;;17.50;99.90;17.30;99140;;;;564336;251;24106;-78
2023/08/30 02:48:22;;;;;;;20.12;12.37;;;17.50;99.90;17.30;99144;;;;570202;246;35085;-79
2023/08/30 02:50:47;;;;;;;17.73;10.60;;;17.50;99.90;17.30;99143;;;;564356;250;24140;-79
2023/08/30 02:53:16;;;;;;;13.93;9.33;;;17.60;99.90;17.30;99132;;;;575078;246;24090;-79
2023/08/30 02:55:44;;;;;;;17.00;8.83;;;17.50;99.90;17.30;99137;;;;561613;251;24104;-79
2023/08/30 02:58:11;;;;;;;19.33;8.90;;;17.50;99.90;17.30;99133;;;;568693;248;24069;-79
2023/08/30 03:00:39;;;;;;;15.17;8.47;;;17.50;99.90;17.30;99142;;;;564580;250;24082;-79
2023/08/30 03:03:07;;;;;;;15.53;8.57;;;17.50;99.90;17.30;99136;;;;574262;246;24050;-79
2023/08/30 03:05:35;;;;;;;14.60;8.17;;;17.50;99.90;17.30;99147;;;;561603;251;24194;-79
2023/08/30 03:08:07;;;;;;;15.03;8.33;;;17.50;99.90;17.30;99143;;;;568816;248;24101;-79
2023/08/30 03:10:33;;;;;;;14.67;8.33;;;17.50;99.90;17.30;99149;;;;568296;248;24175;-79
2023/08/30 03:13:01;;;;;;;16.37;8.20;;;17.50;99.90;17.30;99147;;;;564301;251;24173;-79
2023/08/30 03:15:29;;;;;;;13.93;7.63;;;17.50;99.90;17.30;99153;;;;573892;240;24079;-79
2023/08/30 03:18:02;;;;;;;12.43;6.30;;;17.50;99.90;17.20;99148;;;;583246;244;24047;-79
2023/08/30 03:20:28;;;;;;;5.83;4.37;;;17.50;99.90;17.20;99152;;;;582823;246;24090;-80
2023/08/30 03:23:00;;;;;;;7.47;5.10;;;17.40;99.90;17.20;99161;;;;583137;241;24129;-80
2023/08/30 03:25:34;;;;;;;6.97;5.07;;;17.40;99.90;17.20;99162;;;;570555;246;24081;-79
2023/08/30 03:28:02;;;;;;;6.33;4.37;;;17.40;99.90;17.10;99149;;;;582766;246;24114;-80
2023/08/30 03:30:27;;;;;;;6.60;4.17;;;17.40;99.90;17.10;99151;;;;560307;251;24085;-79
2023/08/30 03:32:55;;;;;;;6.67;4.40;;;17.30;99.90;17.10;99154;;;;572639;245;24092;-79
2023/08/30 03:35:24;;;;;;;4.70;3.93;;;17.30;99.90;17.00;99158;;;;559777;252;24125;-79
2023/08/30 03:37:52;;;;;;;3.73;3.37;;;17.20;99.90;17.10;99162;;;;570286;248;24048;-79
2023/08/30 03:40:20;;;;;;;4.40;3.97;;;17.30;99.90;17.00;99161;;;;569531;251;24100;-80
2023/08/30 03:42:49;;;;;;;8.13;4.00;;;17.30;99.90;17.10;99163;;;;566016;248;24078;-77
2023/08/30 03:45:16;;;;;;;4.40;3.60;;;17.20;99.90;17.00;99169;;;;565108;251;24122;-79
2023/08/30 03:47:44;;;;;;;6.50;3.73;;;17.20;99.90;17.00;99165;;;;574887;246;24033;-80
2023/08/30 03:50:13;;;;;;;3.97;3.40;;;17.20;99.90;17.00;99166;;;;583958;244;24059;-79
2023/08/30 03:52:40;;;;;;;3.13;2.90;;;17.20;99.90;17.00;99166;;;;560970;251;24071;-79
2023/08/30 03:55:12;;;;;;;3.87;3.03;;;17.20;99.90;17.00;99162;;;;573655;248;24098;-79
2023/08/30 03:57:39;;;;;;;3.40;2.80;;;17.20;99.90;17.00;99173;;;;564414;251;24120;-79
2023/08/30 04:00:08;;;;;;;3.47;3.17;;;17.20;99.90;17.00;99165;;;;564432;251;24100;-79
2023/08/30 04:02:32;;;;;;;3.20;2.33;;;17.20;99.90;17.00;99179;;;;574406;246;24072;-79
2023/08/30 04:05:00;;;;;;;2.47;2.30;;;17.20;99.90;17.00;99187;;;;570822;246;24041;-79
2023/08/30 04:07:28;;;;;;;4.23;2.70;;;17.20;99.90;17.00;99185;;;;583571;244;24063;-79
2023/08/30 04:09:56;;;;;;;2.90;2.70;;;17.20;99.90;17.00;99184;;;;571144;246;24050;-80
2023/08/30 04:12:24;;;;;;;2.83;2.13;;;17.20;99.90;17.10;99183;;;;583516;241;24047;-80
2023/08/30 04:14:55;;;;;;;2.67;2.10;;;17.20;99.90;17.10;99181;;;;570761;246;24053;-79
2023/08/30 04:17:19;;;;;;;2.43;2.23;;;17.30;99.90;17.10;99176;;;;583111;246;24065;-79
2023/08/30 04:19:48;;;;;;;2.33;2.23;;;17.30;99.90;17.10;99184;;;;570430;246;24105;-80
2023/08/30 04:22:16;;;;;;;2.37;2.27;;;17.30;99.90;17.10;99177;;;;583229;241;24117;-78
2023/08/30 04:24:44;;;;;;;2.53;2.40;;;17.30;99.90;17.10;99173;;;;570416;246;24078;-78
2023/08/30 04:27:12;;;;;;;2.70;2.50;;;17.30;99.90;17.10;99175;;;;583197;241;24062;-78
2023/08/30 04:29:44;;;;;;;2.47;2.33;;;17.30;99.90;17.10;99171;;;;570458;246;24091;-79
2023/08/30 04:32:09;;;;;;;3.10;2.70;;;17.30;99.90;17.10;99167;;;;582991;246;24053;-78
2023/08/30 04:34:37;;;;;;;6.63;3.27;;;17.30;99.90;17.10;99176;;;;570505;246;24111;-78
2023/08/30 04:37:05;;;;;;;3.57;3.27;;;17.40;99.90;17.10;99168;;;;583164;244;24130;-79
2023/08/30 04:39:33;;;;;;;3.27;3.07;;;17.30;99.90;17.10;99171;;;;570748;246;24069;-79
2023/08/30 04:42:02;;;;;;;4.03;3.73;;;17.30;99.90;17.10;99166;;;;583308;244;24045;-79
2023/08/30 04:44:32;;;;;;;3.50;3.30;;;17.40;99.90;17.10;99177;;;;560249;251;24079;-79
2023/08/30 04:46:57;;;;;;;3.73;3.43;;;17.40;99.90;17.20;99186;;;;564250;251;24104;-79
2023/08/30 04:49:25;;;;;;;4.60;4.20;;;17.40;99.90;17.20;99177;;;;559619;252;24070;-79
2023/08/30 04:51:53;;;;;;;4.50;4.13;;;17.50;99.90;17.30;99183;;;;570067;248;24042;-79
2023/08/30 04:54:21;;;;;;;5.13;4.73;;;17.50;99.90;17.30;99181;;;;570810;250;24090;-79
2023/08/30 04:56:49;;;;;;;6.73;6.13;;;17.50;99.90;17.30;99187;;;;565577;248;24101;-79
2023/08/30 04:59:17;;;;;;;6.77;6.17;;;17.50;99.90;17.30;99181;;;;565009;251;24128;-79
2023/08/30 05:01:45;;;;;;;7.07;6.37;;;17.50;99.90;17.30;99177;;;;574561;246;24111;-79
2023/08/30 05:04:13;;;;;;;7.13;5.67;;;17.50;99.90;17.30;99179;;;;583912;244;24055;-79
2023/08/30 05:06:41;;;;;;;8.20;5.60;;;17.50;99.90;17.30;99169;;;;571018;246;25095;-79
2023/08/30 05:09:08;;;;;;;6.20;5.40;;;17.50;99.90;17.30;99173;;;;584199;244;24096;-80
2023/08/30 05:11:36;;;;;;;6.30;5.70;;;17.60;99.90;17.30;99171;;;;571233;246;24047;-79
2023/08/30 05:14:04;;;;;;;6.97;6.27;;;17.60;99.90;17.30;99168;;;;583422;244;24058;-79
2023/08/30 05:16:32;;;;;;;10.13;5.37;;;17.60;99.90;17.30;99166;;;;570844;246;24054;-78
2023/08/30 05:19:00;;;;;;;9.50;6.03;;;17.60;99.90;17.30;99173;;;;561351;251;24091;-79
2023/08/30 05:21:28;;;;;;;5.90;5.40;;;17.60;99.90;17.30;99173;;;;564888;248;23147;-79
2023/08/30 05:23:56;;;;;;;7.07;6.27;;;17.60;99.90;17.30;99175;;;;564439;251;24074;-78
2023/08/30 05:26:24;;;;;;;7.67;5.70;;;17.50;99.90;17.30;99179;;;;573925;245;24169;-78
2023/08/30 05:28:52;;;;;;;7.87;5.57;;;17.50;99.90;17.30;99181;;;;564856;248;24108;-79
2023/08/30 05:31:20;;;;;;;6.03;5.30;;;17.50;99.90;17.30;99173;;;;564164;251;24117;-78
2023/08/30 05:33:48;;;;;;;4.80;4.40;;;17.50;99.90;17.40;99173;;;;573954;246;24042;-79
2023/08/30 05:36:15;;;;;;;6.27;4.00;;;17.70;99.90;17.50;99169;;;;583182;244;24046;-79
2023/08/30 05:38:43;;;;;;;7.37;4.27;;;17.70;99.90;17.50;99164;;;;570762;246;24052;-79
2023/08/30 05:41:11;;;;;;;4.73;4.30;;;17.80;99.90;17.60;99170;;;;583626;241;24052;-79
2023/08/30 05:43:39;;;;;;;5.23;4.60;;;17.80;99.90;17.70;99175;;;;570294;246;24086;-79
2023/08/30 05:46:14;;;;;;;5.00;4.60;;;18.00;99.90;17.80;99170;;;;583281;244;23179;-79
2023/08/30 05:48:37;;;;;;;4.30;3.73;;;18.10;99.90;17.80;99180;;;;559903;251;24087;-78
2023/08/30 05:51:04;;;;;;;4.00;2.93;;;18.10;99.90;17.90;99176;;;;572900;248;24144;-78
2023/08/30 05:53:36;;;;;;;3.50;3.20;;;18.10;99.90;17.90;99183;;;;559710;252;24076;-79
2023/08/30 05:56:00;;;;;;;3.00;2.70;;;18.20;99.90;17.90;99184;;;;582431;244;24122;-80
2023/08/30 05:58:29;;;;;;;3.77;3.17;;;18.20;99.90;17.90;99189;;;;568493;248;24056;-79
2023/08/30 06:00:57;;;;;;;4.07;3.13;;;18.20;99.90;17.90;99202;;;;564150;251;24104;-79
2023/08/30 06:03:25;;;;;;;1.97;1.87;;;18.20;99.90;17.80;99198;;;;574061;246;24222;-79
2023/08/30 06:05:55;;;;;;;2.60;2.37;;;18.10;99.90;17.70;99196;;;;584575;240;24049;-78
2023/08/30 06:08:21;;;;;;;2.97;2.77;;;18.00;99.90;17.70;99192;;;;558978;252;23104;-78
2023/08/30 06:10:48;;;;;;;4.60;2.10;;;18.00;99.90;17.80;99190;;;;569353;251;24133;-79
2023/08/30 06:13:16;;;;;;;2.27;2.17;;;18.00;99.90;17.80;99193;;;;571604;246;23064;-78
2023/08/30 06:15:45;;;;;;;1.67;1.57;;;18.00;99.90;17.70;99201;;;;583899;241;23064;-79
2023/08/30 06:18:12;;;;;;;4.33;1.77;;;18.00;99.90;17.70;99198;;;;560849;251;24090;-79
2023/08/30 06:20:43;;;;;;;2.63;1.40;;;18.00;99.90;17.70;99202;;;;573454;248;24089;-78
2023/08/30 06:23:11;;;;;;;3.25;1.58;;;18.00;99.90;17.70;99198;;;;555434;252;35231;-78
2023/08/30 06:25:43;;;;;;;3.83;1.63;;;18.00;99.90;17.80;99198;;;;583227;246;23075;-78
2023/08/30 06:28:07;;;;;;;2.03;1.13;;;18.10;99.90;17.80;99201;;;;568375;248;24164;-79
2023/08/30 06:30:35;;;;;;;3.17;1.50;;;18.10;99.90;17.90;99203;;;;564467;251;24061;-78
2023/08/30 06:33:03;;;;;;;2.10;1.40;;;18.20;99.90;17.90;99214;;;;574254;246;24070;-78
2023/08/30 06:35:31;;;;;;;2.73;1.40;;;18.20;99.90;17.90;99216;;;;583423;244;24073;-79
2023/08/30 06:37:58;;;;;;;1.87;1.60;;;18.20;99.90;18.00;99214;;;;570817;246;23103;-78
2023/08/30 06:40:26;;;;;;;3.97;2.00;;;18.20;99.90;18.10;99212;;;;583749;241;24050;-79
2023/08/30 06:42:55;;;;;;;1.60;1.60;;;18.40;99.90;18.10;99209;;;;570754;246;24081;-78
2023/08/30 06:45:24;;;;;;;4.07;1.50;;;18.50;99.90;18.20;99216;;;;583307;241;24061;-79
2023/08/30 06:47:55;;;;;;;1.60;1.50;;;18.50;99.90;18.30;99216;;;;570390;246;23151;-78
2023/08/30 06:50:22;;;;;;;1.73;1.63;;;18.50;99.90;18.30;99210;;;;563745;250;24114;-79
2023/08/30 06:52:50;;;;;;;1.80;1.70;;;18.60;99.90;18.30;99205;;;;570466;246;24092;-79
2023/08/30 06:55:18;;;;;;;1.33;1.23;;;18.60;99.90;18.40;99212;;;;583594;244;24080;-78
2023/08/30 06:57:46;;;;;;;1.87;1.40;;;18.60;99.90;18.40;99216;;;;570471;246;24072;-79
2023/08/30 07:00:14;;;;;;;1.47;1.47;;;18.70;99.90;18.60;99216;;;;583115;244;23083;-79
2023/08/30 07:02:45;;;;;;;1.20;1.10;;;18.80;99.90;18.60;99218;;;;570522;241;24129;-79
2023/08/30 07:05:16;;;;;;;1.20;1.20;;;18.80;99.90;18.70;99220;;;;583156;241;23070;-78
2023/08/30 07:07:41;;;;;;;1.73;1.63;;;18.90;99.90;18.60;99225;;;;583059;241;24156;-78
2023/08/30 07:10:09;;;;;;;1.53;1.43;;;18.90;99.90;18.60;99226;;;;564099;251;24131;-79
2023/08/30 07:12:37;;;;;;;1.43;1.43;;;18.90;99.90;18.70;99235;;;;570912;246;24116;-80
2023/08/30 07:15:05;;;;;;;1.20;1.20;;;18.90;99.90;18.80;99221;;;;583582;244;23067;-79
2023/08/30 07:17:34;;;;;;;1.20;1.20;;;19.20;99.90;18.90;99231;;;;571968;246;24043;-78
2023/08/30 07:20:04;;;;;;;1.77;1.37;;;19.10;99.90;19.10;99231;;;;584354;243;23117;-78
2023/08/30 07:22:30;;;;;;;2.43;1.50;;;19.30;99.90;19.20;99230;;;;561042;251;24091;-78
2023/08/30 07:24:57;;;;;;;1.30;1.20;;;19.40;99.90;19.20;99235;;;;573625;245;23095;-78
2023/08/30 07:27:28;;;;;;;2.40;1.50;;;19.50;99.90;19.30;99239;;;;560214;252;23119;-78
2023/08/30 07:29:54;;;;;;;1.40;1.30;;;19.50;99.90;19.40;99247;;;;570488;247;24085;-78
2023/08/30 07:32:22;;;;;;;1.10;1.00;;;19.60;99.90;19.30;99242;;;;570297;251;24139;-79
2023/08/30 07:34:50;;;;;;;1.00;1.00;;;19.60;99.90;19.30;99245;;;;564910;248;24084;-78
2023/08/30 07:37:20;;;;;;;1.10;1.10;;;19.50;99.90;19.20;99241;;;;564597;251;23103;-78
2023/08/30 07:39:48;;;;;;;1.13;1.03;;;19.40;99.90;19.10;99250;;;;574591;246;24057;-78
2023/08/30 07:42:16;;;;;;;1.27;1.27;;;19.30;99.90;19.00;99258;;;;583892;241;24046;-79
2023/08/30 07:44:44;;;;;;;1.13;1.03;;;19.30;99.90;19.10;99260;;;;571318;246;23072;-77
2023/08/30 07:47:12;;;;;;;1.20;1.20;;;19.30;99.90;19.00;99260;;;;583664;244;24139;-78
2023/08/30 07:49:40;;;;;;;1.10;1.10;;;19.30;99.90;18.90;99266;;;;574362;246;24057;-78
2023/08/30 07:52:10;;;;;;;2.20;1.40;;;19.20;99.90;18.90;99265;;;;572240;247;24081;-79
2023/08/30 07:54:36;;;;;;;1.43;1.33;;;19.20;99.90;18.90;99269;;;;564327;251;23271;-78
2023/08/30 07:57:04;;;;;;;1.40;1.30;;;19.10;99.90;18.90;99265;;;;578210;246;23082;-78
2023/08/30 07:59:39;;;;;;;1.00;1.00;;;19.10;99.90;18.90;99273;;;;570419;246;23121;-78
2023/08/30 08:02:07;;;;;;;1.43;1.40;;;19.20;99.90;19.00;99264;;;;583472;241;24046;-79
2023/08/30 08:04:37;;;;;;;1.07;1.07;;;19.20;99.90;18.90;99264;;;;570507;246;24078;-78
2023/08/30 08:07:06;;;;;;;1.00;1.00;;;19.20;99.90;19.00;99262;;;;583071;245;24116;-78
2023/08/30 08:09:30;;;;;;;0.90;0.90;;;19.20;99.90;19.10;99267;;;;560112;251;23115;-78
2023/08/30 08:11:58;;;;;;;1.10;1.10;;;19.30;99.90;19.10;99261;;;;564804;251;24098;-78
2023/08/30 08:14:26;;;;;;;1.90;0.90;;;19.30;99.90;19.20;99267;;;;561490;251;24093;-79
2023/08/30 08:16:54;;;;;;;0.90;0.90;;;19.40;99.90;19.40;99277;;;;568992;248;24085;-79
2023/08/30 08:19:22;;;;;;;0.93;0.93;;;19.60;99.90;19.60;99280;;;;560416;251;24129;-77
2023/08/30 08:21:50;;;;;;;1.00;0.90;;;19.70;99.90;19.80;99274;;;;574191;244;23068;-79
2023/08/30 08:24:18;;;;;;;0.90;0.90;;;20.20;99.90;20.00;99274;;;;574801;246;24061;-77
2023/08/30 08:26:46;;;;;;;0.97;0.97;;;20.20;99.90;20.20;99268;;;;570576;246;24060;-78
2023/08/30 08:29:18;;;;;;;1.10;1.00;;;20.50;99.90;20.30;99268;;;;585169;244;24064;-78
2023/08/30 08:31:42;;;;;;;1.10;1.10;;;20.60;99.90;20.40;99274;;;;564322;251;24127;-78
2023/08/30 08:34:11;;;;;;;0.60;0.60;;;20.70;99.90;20.30;99274;;;;574898;246;24150;-78
2023/08/30 08:36:42;;;;;;;0.77;0.70;;;20.60;99.90;20.20;99276;;;;584247;243;24136;-77
2023/08/30 08:39:09;;;;;;;1.63;1.20;;;20.60;99.90;20.10;99271;;;;583604;246;24170;-79
2023/08/30 08:41:44;;;;;;;1.00;1.00;;;20.50;99.90;20.00;99271;;;;584370;246;24071;-79
2023/08/30 08:44:17;;;;;;;1.00;1.00;;;20.30;99.90;19.90;99270;;;;584562;240;24067;-78
2023/08/30 08:46:42;;;;;;;0.70;0.70;;;20.30;99.90;20.00;99272;;;;575051;246;24085;-78
2023/08/30 08:49:13;;;;;;;1.17;0.73;;;20.30;99.90;20.20;99281;;;;571057;246;24077;-77
2023/08/30 08:51:44;;;;;;;1.00;1.00;;;20.80;99.90;20.60;99288;;;;583468;241;24050;-77
2023/08/30 08:54:12;;;;;;;0.60;0.60;;;20.80;99.90;20.90;99278;;;;583542;246;24080;-78
2023/08/30 08:56:40;;;;;;;3.33;0.70;;;21.20;99.90;21.30;99278;;;;569532;249;24086;-77
2023/08/30 08:59:09;;;;;;;1.00;0.53;;;22.00;99.90;21.60;99280;;;;575476;245;24100;-78
2023/08/30 09:01:40;;;;;;;1.13;0.50;;;22.00;99.90;21.90;99275;;;;584357;244;24045;-78
2023/08/30 09:04:12;;;;;;;0.53;0.53;;;22.20;99.90;21.90;99275;;;;570933;246;24168;-78
2023/08/30 09:06:39;;;;;;;0.73;0.70;;;22.30;99.90;21.80;99282;;;;583519;246;23076;-78
2023/08/30 09:09:08;;;;;;;0.60;0.60;;;22.20;99.90;21.80;99283;;;;583573;246;24115;-78
2023/08/30 09:11:34;;;;;;;0.87;0.53;;;22.20;99.90;22.10;99293;;;;583163;246;23167;-78
2023/08/30 09:13:59;;;;;;;1.40;0.53;;;22.40;99.90;22.50;99293;;;;574340;246;23090;-78
2023/08/30 09:16:32;;;;;;;1.83;1.30;;;22.90;99.90;22.60;99294;;;;583355;244;25134;-78
2023/08/30 09:19:05;;;;;;;0.80;0.80;;;23.00;99.90;22.70;99291;;;;563121;251;23127;-79
2023/08/30 09:21:37;;;;;;;0.70;0.70;;;23.00;99.90;22.80;99294;;;;570530;246;24108;-78
2023/08/30 09:24:04;;;;;;;0.50;0.50;;;23.20;99.90;22.90;99310;;;;583383;246;23099;-79
2023/08/30 09:26:35;;;;;;;0.67;0.67;;;23.20;99.90;22.90;99315;;;;574745;246;23083;-79
2023/08/30 09:29:06;;;;;;;0.70;0.70;;;23.30;99.90;22.80;99305;;;;583083;246;24077;-78
2023/08/30 09:31:37;;;;;;;5.20;1.20;;;23.20;99.90;22.50;99304;;;;574421;245;23082;-80
2023/08/30 09:34:08;;;;;;;0.73;0.73;;;23.00;99.90;22.20;99309;;;;583412;246;23064;-79
2023/08/30 09:36:36;;;;;;;0.87;0.70;;;22.60;99.90;21.80;99304;;;;570446;246;24047;-79
2023/08/30 09:39:10;;;;;;;1.00;1.00;;;22.20;99.90;21.50;99298;;;;575028;246;24082;-78
2023/08/30 09:41:43;;;;;;;0.80;0.80;;;21.90;99.90;21.20;99311;;;;575533;246;23119;-80
2023/08/30 09:44:14;;;;;;;1.30;0.83;;;21.70;99.90;21.00;99306;;;;583943;246;24109;-79
2023/08/30 09:46:57;;;;;;;4.03;0.90;;;21.40;99.90;21.00;99305;;;;570801;246;24075;-79
2023/08/30 09:49:24;;;;;;;0.60;0.60;;;21.30;99.90;20.90;99310;;;;560845;251;24079;-78
2023/08/30 09:51:56;;;;;;;0.83;0.70;;;21.30;99.90;21.00;99317;;;;572571;246;23148;-80
2023/08/30 09:54:26;;;;;;;0.90;0.90;;;21.30;99.90;21.10;99314;;;;583556;245;24162;-79
2023/08/30 09:56:56;;;;;;;0.80;0.67;;;21.40;99.90;21.10;99322;;;;574558;246;24069;-79
2023/08/30 09:59:19;;;;;;;2.33;0.70;;;21.40;99.90;21.00;99315;;;;583415;246;23083;-79
2023/08/30 10:01:50;;;;;;;0.97;0.80;;;21.40;99.90;21.00;99308;;;;570914;246;24057;-79
2023/08/30 10:04:18;;;;;;;0.60;0.60;;;21.40;99.90;21.10;99304;;;;583413;246;24090;-78
2023/08/30 10:06:43;;;;;;;0.83;0.83;;;21.40;99.90;21.20;99307;;;;574933;246;24110;-78
2023/08/30 10:09:11;;;;;;;1.10;1.00;;;21.50;99.90;21.30;99312;;;;583696;243;24055;-79
2023/08/30 10:11:39;;;;;;;0.43;0.43;;;21.60;99.90;21.40;99311;;;;570509;246;24113;-79
2023/08/30 10:14:07;;;;;;;1.23;0.90;;;21.70;99.90;21.50;99320;;;;574415;246;24075;-79
2023/08/30 10:16:44;;;;;;;1.27;0.70;;;21.80;99.90;21.50;99327;;;;582989;246;24115;-79
2023/08/30 10:19:15;;;;;;;1.07;0.97;;;21.80;99.90;21.40;99326;;;;582776;246;24102;-79
2023/08/30 10:21:43;;;;;;;0.73;0.73;;;21.70;99.90;21.30;99326;;;;570272;246;24098;-80
2023/08/30 10:24:17;;;;;;;3.47;0.90;;;21.70;99.90;21.10;99333;;;;583072;246;24054;-78
2023/08/30 10:26:45;;;;;;;1.60;0.60;;;21.50;99.90;21.00;99335;;;;560575;251;24135;-79
2023/08/30 10:29:13;;;;;;;0.63;0.63;;;21.40;99.90;21.00;99333;;;;559975;251;24149;-79
2023/08/30 10:31:44;;;;;;;1.10;1.00;;;21.30;99.90;20.80;99327;;;;570457;246;24089;-79
2023/08/30 10:34:18;;;;;;;2.77;1.20;;;21.10;99.90;20.70;99334;;;;583283;241;24070;-79
2023/08/30 10:36:43;;;;;;;1.37;1.20;;;21.10;99.90;20.60;99328;;;;582098;243;24117;-79
2023/08/30 10:39:14;;;;;;;0.87;0.87;;;21.00;99.90;20.50;99326;;;;572328;245;24113;-78
2023/08/30 10:41:57;;;;;;;1.93;1.20;;;20.90;99.90;20.40;99326;;;;574106;245;24066;-78
2023/08/30 10:44:25;;;;;;;2.27;0.80;;;20.80;99.90;20.30;99329;;;;568786;247;24095;-78
2023/08/30 10:46:54;;;;;;;1.53;1.27;;;20.60;99.90;20.20;99327;;;;582909;246;24065;-78
2023/08/30 10:49:26;;;;;;;1.47;0.73;;;20.50;99.90;20.00;99321;;;;582977;241;24072;-80
2023/08/30 10:51:57;;;;;;;1.97;0.97;;;20.40;99.90;19.90;99326;;;;558381;251;24088;-78
2023/08/30 10:54:23;;;;;;;0.57;0.57;;;20.30;99.90;19.80;99332;;;;565523;248;23188;-78
2023/08/30 10:57:01;;;;;;;0.83;0.83;;;20.20;99.90;19.80;99330;;;;575044;246;24050;-78
2023/08/30 10:59:29;;;;;;;1.73;1.00;;;20.10;99.90;19.80;99332;;;;561146;245;24074;-77
2023/08/30 11:01:57;;;;;;;2.53;1.07;;;20.10;99.90;19.80;99328;;;;583496;244;24066;-78
2023/08/30 11:04:25;;;;;;;0.70;0.70;;;20.10;99.90;19.90;99323;;;;570637;246;24163;-79
2023/08/30 11:06:53;;;;;;;2.90;0.97;;;20.20;99.90;19.90;99324;;;;583621;241;24046;-78
2023/08/30 11:09:21;;;;;;;0.63;0.63;;;20.20;99.90;19.90;99321;;;;574048;246;24045;-79
2023/08/30 11:11:49;;;;;;;1.23;0.90;;;20.20;99.90;19.90;99326;;;;583279;246;23083;-79
2023/08/30 11:14:18;;;;;;;0.70;0.70;;;20.30;99.90;19.90;99317;;;;570909;246;23084;-77
2023/08/30 11:16:46;;;;;;;2.50;1.03;;;20.20;99.90;19.90;99329;;;;583619;244;24067;-78
2023/08/30 11:19:14;;;;;;;0.83;0.83;;;20.30;99.90;19.90;99321;;;;570857;246;24106;-77